Time;durP1;ratioP1;P1;durP2;ratioP2;P2;SDS_P1;SDS_P2;PMS_P1;PMS_P2;Temp;Humidity;BMP_temperature;BMP_pressure;BME280_temperature;BME280_humidity;BME280_pressure;Samples;Min_cycle;Max_cycle;Signal;HPM_P1;HPM_P2
2023/05/05 00:01:43;;;;;;;;;;;16.00;36.70;;;15.00;36.37;101672.13;12259290;19;19919;-86
2023/05/05 00:05:47;;;;;;;;;;;16.00;36.70;;;15.05;36.40;101683.22;12256104;19;19971;-86
2023/05/05 00:09:49;;;;;;;;;;;16.00;36.80;;;14.98;36.39;101676.63;12256924;19;19927;-86
2023/05/05 00:13:50;;;;;;;;;;;15.90;36.60;;;14.93;36.42;101668.19;12257882;19;19938;-86
2023/05/05 00:17:51;;;;;;;;;;;15.90;36.50;;;14.85;36.33;101657.22;12256583;19;20012;-86
2023/05/05 00:21:53;;;;;;;;;;;15.90;36.70;;;14.89;36.43;101676.31;12259528;19;19986;-86
2023/05/05 00:25:55;;;;;;;;;;;15.90;36.90;;;14.75;36.45;101659.56;12256485;19;19942;-86
2023/05/05 00:29:56;;;;;;;;;;;15.80;36.60;;;14.89;36.54;101685.06;12256569;19;19962;-86
2023/05/05 00:33:58;;;;;;;;;;;15.80;36.70;;;14.85;36.64;101675.63;12258241;19;19919;-86
2023/05/05 00:37:59;;;;;;;;;;;15.80;36.60;;;14.78;36.69;101667.28;12256257;19;19915;-86
2023/05/05 00:42:01;;;;;;;;;;;15.80;36.80;;;14.86;36.51;101671.25;12254771;19;19919;-85
2023/05/05 00:46:18;;;;;;;;;;;15.80;36.50;;;14.77;36.45;101662.97;12254096;19;20263;-85
2023/05/05 00:50:24;;;;;;;;;;;15.70;36.70;;;14.75;36.73;101672.72;12253601;19;20337;-86
2023/05/05 00:54:25;;;;;;;;;;;15.70;36.60;;;14.50;36.78;101628.56;12254744;19;19935;-86
2023/05/05 00:58:29;;;;;;;;;;;15.70;36.60;;;14.64;36.72;101651.44;12252208;19;19963;-86
2023/05/05 01:02:30;;;;;;;;;;;15.70;36.60;;;14.48;36.77;101635.69;12253449;19;19926;-86
2023/05/05 01:11:58;;;;;;;;;;;15.60;36.60;;;14.55;36.93;101658.06;12252101;19;19919;-86
2023/05/05 01:16:06;;;;;;;;;;;15.50;37.50;;;14.44;36.90;101643.81;12255569;19;19974;-85
2023/05/05 01:20:27;;;;;;;;;;;15.50;36.90;;;14.36;36.82;101642.47;12250414;19;19922;-85
2023/05/05 01:25:03;;;;;;;;;;;15.50;36.70;;;14.41;36.90;101641.38;12250408;19;19925;-86
2023/05/05 01:29:16;;;;;;;;;;;15.40;36.70;;;14.36;36.99;101645.09;12249972;19;19931;-86
2023/05/05 01:33:23;;;;;;;;;;;15.30;36.70;;;14.26;37.07;101641.31;12252860;19;19915;-86
2023/05/05 01:37:29;;;;;;;;;;;15.30;36.90;;;14.16;37.01;101642.75;12249211;19;19915;-85
2023/05/05 01:41:39;;;;;;;;;;;15.20;36.70;;;14.09;37.03;101631.72;12252582;19;19914;-86
2023/05/05 01:45:43;;;;;;;;;;;15.20;36.80;;;14.07;37.08;101654.59;12250386;19;19906;-86
2023/05/05 01:49:46;;;;;;;;;;;15.10;36.70;;;13.95;37.04;101632.47;12249312;19;19911;-86
2023/05/05 01:53:51;;;;;;;;;;;15.00;36.80;;;13.81;37.18;101619.25;12252597;19;19911;-86
2023/05/05 01:57:54;;;;;;;;;;;15.00;36.80;;;13.83;37.21;101633.16;12251276;19;19911;-86
2023/05/05 02:01:57;;;;;;;;;;;14.90;36.90;;;13.53;37.14;101591.03;12259441;19;19923;-86
2023/05/05 02:05:59;;;;;;;;;;;14.90;36.80;;;13.51;37.26;101600.78;12261856;19;19919;-86
2023/05/05 02:10:02;;;;;;;;;;;14.80;37.00;;;13.65;37.28;101629.75;12259574;19;19923;-86
2023/05/05 02:14:05;;;;;;;;;;;14.70;36.90;;;13.60;37.35;101631.75;12266638;19;20275;-86
2023/05/05 02:18:07;;;;;;;;;;;14.70;36.90;;;13.44;37.27;101618.59;12261945;19;20348;-86
2023/05/05 02:22:09;;;;;;;;;;;14.60;37.00;;;13.42;37.38;101616.97;12265023;19;19907;-86
2023/05/05 02:26:12;;;;;;;;;;;14.60;36.90;;;13.38;37.42;101624.19;12262709;19;19929;-86
2023/05/05 02:30:16;;;;;;;;;;;14.50;37.00;;;13.37;37.52;101634.78;12262922;19;19957;-86
2023/05/05 02:34:26;;;;;;;;;;;14.60;37.00;;;13.36;37.42;101635.69;12265458;19;19915;-85
2023/05/05 02:38:29;;;;;;;;;;;14.40;37.00;;;13.34;37.45;101637.53;12261085;19;19918;-86
2023/05/05 02:42:39;;;;;;;;;;;14.40;37.10;;;13.27;37.54;101629.97;12264191;19;19918;-86
2023/05/05 02:46:44;;;;;;;;;;;14.30;37.20;;;13.23;37.54;101636.31;12258545;19;19922;-86
2023/05/05 02:50:46;;;;;;;;;;;14.30;37.50;;;13.12;37.68;101624.66;12259626;19;19911;-86
2023/05/05 02:54:56;;;;;;;;;;;14.20;37.20;;;13.09;37.64;101625.66;12265160;19;19922;-86
2023/05/05 02:59:13;;;;;;;;;;;14.20;37.10;;;13.14;37.71;101634.13;12260208;19;19911;-86
2023/05/05 03:03:29;;;;;;;;;;;14.20;37.10;;;13.07;37.92;101632.78;12264677;19;19939;-86
2023/05/05 03:07:52;;;;;;;;;;;14.10;37.10;;;13.01;37.84;101635.69;12262041;19;20253;-86
2023/05/05 03:12:06;;;;;;;;;;;14.10;37.10;;;12.98;37.66;101636.69;12259723;19;19930;-86
2023/05/05 03:16:28;;;;;;;;;;;14.10;37.20;;;12.98;37.79;101638.47;12264670;19;19923;-86
2023/05/05 03:20:30;;;;;;;;;;;14.10;37.20;;;12.95;37.82;101625.50;12262664;19;19922;-86
2023/05/05 03:24:37;;;;;;;;;;;14.00;37.20;;;12.93;37.82;101637.84;12259796;19;19915;-86
2023/05/05 03:28:43;;;;;;;;;;;14.00;37.10;;;12.94;37.95;101632.53;12261022;19;19962;-86
2023/05/05 03:32:52;;;;;;;;;;;14.00;37.30;;;12.95;37.97;101636.00;12263029;19;19918;-86
2023/05/05 03:36:54;;;;;;;;;;;14.00;37.40;;;12.93;37.91;101649.19;12257975;19;19917;-86
2023/05/05 03:40:56;;;;;;;;;;;14.00;37.30;;;12.95;37.98;101647.34;12261036;19;19911;-86
2023/05/05 03:45:01;;;;;;;;;;;14.00;37.40;;;12.90;38.12;101645.88;12258731;19;19926;-86
2023/05/05 03:49:02;;;;;;;;;;;14.00;37.30;;;12.93;38.06;101648.34;12259160;19;19911;-86
2023/05/05 03:53:04;;;;;;;;;;;14.00;37.40;;;12.81;38.13;101632.31;12259623;19;19936;-85
2023/05/05 03:57:07;;;;;;;;;;;13.90;37.40;;;12.85;38.11;101640.84;12259306;19;19915;-86
2023/05/05 04:01:08;;;;;;;;;;;13.90;37.50;;;12.68;38.14;101631.22;12258137;19;19915;-86
2023/05/05 04:05:10;;;;;;;;;;;13.90;37.40;;;12.76;38.03;101644.78;12260695;19;19946;-86
2023/05/05 04:09:13;;;;;;;;;;;13.90;37.30;;;12.72;38.17;101648.50;12258344;19;20325;-86
2023/05/05 04:13:15;;;;;;;;;;;13.80;38.10;;;12.65;38.17;101635.75;12260280;19;20265;-85
2023/05/05 04:17:18;;;;;;;;;;;13.70;38.40;;;12.63;38.27;101641.06;12257519;19;19926;-86
2023/05/05 04:21:20;;;;;;;;;;;13.70;38.10;;;12.61;38.24;101642.94;12258894;19;19931;-85
2023/05/05 04:25:21;;;;;;;;;;;13.70;38.00;;;12.55;38.49;101635.34;12257493;19;19923;-86
2023/05/05 04:29:24;;;;;;;;;;;13.70;38.20;;;12.59;38.40;101644.78;12257704;19;19990;-86
2023/05/05 04:33:26;;;;;;;;;;;13.70;39.40;;;12.47;38.51;101634.88;12252202;19;19922;-85
2023/05/05 04:37:28;;;;;;;;;;;13.70;39.90;;;12.42;38.66;101629.00;12256081;19;20392;-86
2023/05/05 04:41:30;;;;;;;;;;;13.70;39.20;;;12.38;38.76;101631.78;12256118;19;19911;-86
2023/05/05 04:45:32;;;;;;;;;;;13.60;38.40;;;12.26;38.64;101613.19;12247799;19;19939;-85
2023/05/05 04:49:34;;;;;;;;;;;13.60;40.30;;;12.48;38.85;101665.41;12255614;19;19929;-86
2023/05/05 04:53:36;;;;;;;;;;;13.70;38.90;;;12.52;38.87;101664.31;12259132;19;19919;-86
2023/05/05 04:57:38;;;;;;;;;;;13.70;40.30;;;12.55;38.88;101672.03;12253452;19;19929;-86
2023/05/05 05:01:40;;;;;;;;;;;13.70;40.00;;;12.45;38.94;101648.06;12259407;19;19919;-86
2023/05/05 05:05:41;;;;;;;;;;;13.70;40.40;;;12.59;39.13;101663.13;12253438;19;19931;-86
2023/05/05 05:09:43;;;;;;;;;;;13.80;41.40;;;12.64;39.13;101669.00;12252414;19;20231;-85
2023/05/05 05:13:45;;;;;;;;;;;13.80;41.20;;;12.73;39.10;101681.63;12254894;19;19942;-86
2023/05/05 05:17:47;;;;;;;;;;;13.90;40.20;;;12.77;39.18;101671.84;12249932;19;19974;-86
2023/05/05 05:21:48;;;;;;;;;;;13.90;40.10;;;12.83;39.16;101680.25;12251983;19;19989;-85
2023/05/05 05:25:50;;;;;;;;;;;14.00;39.40;;;12.73;39.10;101644.94;12251769;19;19939;-85
2023/05/05 05:29:54;;;;;;;;;;;14.10;40.10;;;12.93;39.19;101666.69;12249634;19;19911;-86
2023/05/05 05:33:56;;;;;;;;;;;14.20;41.30;;;13.01;39.19;101673.22;12247047;19;19926;-87
2023/05/05 05:37:58;;;;;;;;;;;14.20;40.30;;;12.98;39.24;101652.41;12261834;19;19974;-86
2023/05/05 05:42:01;;;;;;;;;;;14.30;40.60;;;13.08;39.37;101665.91;12259732;19;19911;-86
2023/05/05 05:46:03;;;;;;;;;;;14.40;39.10;;;13.33;39.42;101690.94;12252066;19;20047;-86
2023/05/05 05:50:06;;;;;;;;;;;14.50;39.50;;;13.39;39.43;101677.50;12249244;19;20338;-86
2023/05/05 05:54:08;;;;;;;;;;;14.60;40.90;;;13.60;39.55;101691.28;12252688;19;20340;-86
2023/05/05 05:58:10;;;;;;;;;;;14.70;39.80;;;13.73;39.57;101695.81;12256745;19;20432;-86
2023/05/05 06:02:11;;;;;;;;;;;14.80;39.80;;;13.82;39.55;101673.44;12260236;19;19919;-87
2023/05/05 06:06:14;;;;;;;;;;;15.00;39.50;;;13.97;39.60;101682.31;12259644;19;19926;-87
2023/05/05 06:10:15;;;;;;;;;;;15.20;39.80;;;14.04;39.60;101665.28;12262547;19;19911;-86
2023/05/05 06:14:18;;;;;;;;;;;15.30;39.80;;;14.23;39.52;101674.75;12260749;19;20380;-85
2023/05/05 06:18:20;;;;;;;;;;;15.50;39.60;;;14.31;39.48;101670.78;12257457;19;19918;-86
2023/05/05 06:22:22;;;;;;;;;;;15.60;39.00;;;14.34;39.69;101664.53;12256007;19;19921;-85
2023/05/05 06:26:25;;;;;;;;;;;15.70;39.10;;;14.54;39.50;101680.03;12251982;19;19923;-85
2023/05/05 06:30:27;;;;;;;;;;;15.80;39.40;;;14.66;39.53;101680.25;12259611;19;19915;-86
2023/05/05 06:34:28;;;;;;;;;;;15.90;38.60;;;14.66;39.50;101664.50;12257523;19;19915;-86
2023/05/05 06:38:29;;;;;;;;;;;16.00;39.30;;;14.82;39.56;101671.44;12255518;19;20352;-85
2023/05/05 06:42:31;;;;;;;;;;;16.20;39.00;;;14.85;39.57;101659.84;12258393;19;19915;-86
2023/05/05 06:46:33;;;;;;;;;;;16.20;38.70;;;15.00;39.56;101674.75;12252558;19;19926;-86
2023/05/05 06:50:35;;;;;;;;;;;16.30;38.60;;;15.05;39.54;101674.50;12256193;19;19927;-86
2023/05/05 06:54:36;;;;;;;;;;;16.40;38.40;;;15.17;39.43;101686.91;12259992;19;19948;-86
2023/05/05 06:58:38;;;;;;;;;;;16.50;38.30;;;15.24;39.49;101687.41;12256610;19;19928;-86
2023/05/05 07:02:40;;;;;;;;;;;16.50;38.20;;;15.24;39.31;101682.16;12256628;19;19919;-85
2023/05/05 07:06:41;;;;;;;;;;;16.60;38.00;;;15.29;39.47;101682.72;12253073;19;19942;-86
2023/05/05 07:10:43;;;;;;;;;;;16.60;38.00;;;15.25;39.38;101655.72;12255296;19;19922;-86
2023/05/05 07:14:45;;;;;;;;;;;16.70;38.10;;;15.52;39.39;101689.22;12258223;19;19919;-86
2023/05/05 07:18:47;;;;;;;;;;;16.80;38.20;;;15.55;39.39;101686.41;12254911;19;20284;-87
2023/05/05 07:22:48;;;;;;;;;;;16.80;38.10;;;15.53;39.49;101661.97;12257185;19;20336;-87
2023/05/05 07:26:50;;;;;;;;;;;16.90;38.20;;;15.67;39.39;101663.75;12249242;19;19923;-86
2023/05/05 07:30:52;;;;;;;;;;;17.00;38.00;;;15.93;39.28;101709.56;12254861;19;19915;-87
2023/05/05 07:34:53;;;;;;;;;;;17.10;37.80;;;15.93;39.25;101699.03;12256571;19;20264;-86
2023/05/05 07:38:55;;;;;;;;;;;17.20;37.90;;;15.89;39.45;101664.13;12251669;19;19919;-86
2023/05/05 07:42:57;;;;;;;;;;;17.30;37.90;;;16.25;39.35;101698.81;12242376;19;20351;-85
2023/05/05 07:46:58;;;;;;;;;;;17.50;38.00;;;16.41;39.34;101706.59;12246200;19;19963;-85
2023/05/05 07:51:00;;;;;;;;;;;17.60;37.90;;;16.52;39.12;101704.09;12250049;19;19931;-85
2023/05/05 07:55:03;;;;;;;;;;;17.70;37.60;;;16.47;39.22;101669.28;12252724;19;20340;-86
2023/05/05 07:59:05;;;;;;;;;;;17.90;37.60;;;16.68;39.34;101696.88;12245047;19;19915;-86
2023/05/05 08:03:07;;;;;;;;;;;17.90;37.60;;;16.94;39.29;101707.56;12251907;19;19923;-85
2023/05/05 08:07:09;;;;;;;;;;;18.10;37.50;;;17.03;39.24;101699.84;12251567;19;20238;-85
2023/05/05 08:11:10;;;;;;;;;;;18.30;37.70;;;17.29;39.22;101712.28;12249076;19;19952;-85
2023/05/05 08:15:11;;;;;;;;;;;18.40;37.60;;;17.38;39.15;101698.44;12241765;19;19919;-85
2023/05/05 08:19:13;;;;;;;;;;;18.60;36.90;;;17.35;38.97;101666.97;12248687;19;19940;-86
2023/05/05 08:23:23;;;;;;;;;;;18.70;37.20;;;17.68;39.09;101698.09;12301330;19;19958;-86
2023/05/05 08:27:25;;;;;;;;;;;18.90;37.50;;;17.89;38.92;101694.00;12304286;19;19925;-85
2023/05/05 08:31:28;;;;;;;;;;;19.00;37.00;;;17.79;38.88;101657.75;12297622;19;19918;-87
2023/05/05 08:35:30;;;;;;;;;;;19.20;37.00;;;18.06;39.00;101665.50;12309855;19;19922;-88
2023/05/05 08:39:32;;;;;;;;;;;19.30;36.90;;;18.27;39.22;101679.00;12307967;19;20347;-86
2023/05/05 08:43:35;;;;;;;;;;;19.50;36.80;;;18.39;38.89;101679.88;12311398;19;19974;-87
2023/05/05 08:47:37;;;;;;;;;;;19.60;37.10;;;18.47;38.99;101667.81;12306771;19;19922;-86
2023/05/05 08:51:41;;;;;;;;;;;19.70;37.10;;;18.67;38.83;101665.50;12311469;19;19962;-86
2023/05/05 08:55:54;;;;;;;;;;;19.90;36.60;;;18.89;38.65;101691.22;12309111;19;19922;-86
2023/05/05 08:59:57;;;;;;;;;;;20.00;35.80;;;18.78;38.89;101655.81;12304303;19;19915;-86
2023/05/05 09:03:59;;;;;;;;;;;20.20;36.20;;;19.08;38.76;101680.94;12307990;19;20325;-86
2023/05/05 09:08:01;;;;;;;;;;;20.30;36.10;;;19.07;38.67;101652.78;12304574;19;19926;-87
2023/05/05 09:12:02;;;;;;;;;;;20.40;36.70;;;19.44;38.47;101679.94;12311162;19;19949;-86
2023/05/05 09:16:04;;;;;;;;;;;20.60;36.10;;;19.60;38.54;101684.00;12309353;19;20350;-86
2023/05/05 09:20:07;;;;;;;;;;;20.80;36.10;;;19.45;38.69;101639.22;12299231;19;20245;-86
2023/05/05 09:24:10;;;;;;;;;;;20.90;35.80;;;19.71;38.52;101648.75;12307410;19;19920;-86
2023/05/05 09:28:16;;;;;;;;;;;21.00;35.80;;;19.96;38.27;101674.19;12306671;19;19914;-85
2023/05/05 09:32:18;;;;;;;;;;;21.20;35.60;;;20.07;38.28;101682.13;12289132;19;19926;-87
2023/05/05 09:36:39;;;;;;;;;;;21.30;34.90;;;20.17;38.37;101682.19;12258333;19;20401;-87
2023/05/05 09:40:48;;;;;;;;;;;21.40;34.60;;;20.12;38.01;101661.38;12255803;19;19918;-87
2023/05/05 09:44:50;;;;;;;;;;;21.40;34.70;;;20.27;37.83;101660.09;12261080;19;19922;-86
2023/05/05 09:48:51;;;;;;;;;;;21.50;35.20;;;20.37;37.69;101654.91;12255206;19;19923;-86
2023/05/05 09:52:57;;;;;;;;;;;21.60;35.40;;;20.62;38.03;101679.47;12256406;19;19926;-86
2023/05/05 09:56:58;;;;;;;;;;;21.70;34.40;;;20.69;38.00;101665.56;12259163;19;19923;-86
2023/05/05 10:01:00;;;;;;;;;;;21.80;33.90;;;20.70;37.63;101648.66;12256775;19;19941;-87
2023/05/05 10:05:10;;;;;;;;;;;21.90;34.40;;;20.95;37.58;101681.09;12257707;19;19923;-86
2023/05/05 10:09:11;;;;;;;;;;;22.00;33.90;;;21.04;37.50;101661.75;12252894;19;19915;-86
2023/05/05 10:13:14;;;;;;;;;;;22.10;34.20;;;21.00;37.77;101650.53;12249354;19;19925;-86
2023/05/05 10:17:16;;;;;;;;;;;22.30;35.40;;;21.08;37.78;101625.16;12247115;19;19922;-87
2023/05/05 10:21:20;;;;;;;;;;;22.40;34.10;;;21.28;37.24;101655.31;12243762;19;19925;-87
2023/05/05 10:25:30;;;;;;;;;;;22.40;34.70;;;21.29;37.52;101627.78;12249639;19;19911;-87
2023/05/05 10:29:38;;;;;;;;;;;22.60;35.00;;;21.51;37.40;101643.56;12248988;19;19926;-86
2023/05/05 10:33:46;;;;;;;;;;;22.70;34.00;;;21.57;37.14;101643.03;12257239;19;20255;-86
2023/05/05 10:37:48;;;;;;;;;;;22.70;34.70;;;21.72;36.99;101643.50;12250659;19;19933;-86
2023/05/05 10:41:50;;;;;;;;;;;22.90;34.70;;;21.73;37.01;101628.41;12251478;19;19982;-86
2023/05/05 10:45:52;;;;;;;;;;;22.90;33.60;;;21.76;36.63;101625.47;12249042;19;19930;-87
2023/05/05 10:50:04;;;;;;;;;;;23.00;34.80;;;21.90;36.90;101627.75;12248171;19;19922;-86
2023/05/05 10:54:18;;;;;;;;;;;23.10;33.40;;;21.97;36.89;101636.03;12252815;19;19938;-86
2023/05/05 10:58:40;;;;;;;;;;;23.10;34.20;;;22.04;36.70;101619.38;12249292;19;19907;-85
2023/05/05 11:02:42;;;;;;;;;;;23.20;34.10;;;22.16;36.62;101619.25;12247777;19;19923;-86
2023/05/05 11:07:24;;;;;;;;;;;23.30;34.10;;;22.27;36.90;101619.16;12252198;19;19918;-87
2023/05/05 11:12:02;;;;;;;;;;;23.30;32.70;;;22.32;36.89;101614.25;12254770;19;20365;-85
2023/05/05 11:16:04;;;;;;;;;;;23.40;33.90;;;22.42;36.54;101614.25;12253823;19;19983;-87
2023/05/05 11:20:06;;;;;;;;;;;23.50;32.80;;;22.40;36.70;101597.59;12250295;19;19927;-88
2023/05/05 11:24:28;;;;;;;;;;;23.60;33.70;;;22.57;36.71;101604.84;12254130;19;20270;-88
2023/05/05 11:28:30;;;;;;;;;;;23.60;33.00;;;22.68;36.13;101598.53;12253595;19;19915;-87
2023/05/05 11:32:32;;;;;;;;;;;23.80;34.60;;;22.67;36.07;101579.06;12252438;19;19915;-87
2023/05/05 11:36:39;;;;;;;;;;;23.80;33.50;;;22.77;36.28;101587.03;12252759;19;19918;-87
2023/05/05 11:40:43;;;;;;;;;;;23.90;33.70;;;22.77;36.01;101591.53;12253111;19;19915;-88
2023/05/05 11:44:44;;;;;;;;;;;23.90;31.60;;;22.77;36.06;101595.03;12252262;19;19925;-89
2023/05/05 11:48:52;;;;;;;;;;;23.90;33.10;;;22.83;35.99;101593.63;12249015;19;19934;-89
2023/05/05 11:52:54;;;;;;;;;;;23.90;32.60;;;22.77;36.07;101579.06;12252036;19;19915;-89
2023/05/05 11:56:59;;;;;;;;;;;24.00;32.90;;;22.85;36.03;101581.00;12248832;19;19915;-88
2023/05/05 12:01:06;;;;;;;;;;;24.00;33.70;;;22.60;36.14;101531.84;12249809;19;19911;-88
2023/05/05 12:05:08;;;;;;;;;;;24.00;33.30;;;22.90;35.59;101579.59;12251034;19;19926;-91
2023/05/05 12:09:20;;;;;;;;;;;24.00;31.60;;;22.89;35.99;101553.91;12247315;19;19907;-89
2023/05/05 12:13:22;;;;;;;;;;;24.00;32.90;;;23.02;35.96;101552.81;12250418;19;19931;-89
2023/05/05 12:17:24;;;;;;;;;;;24.10;33.20;;;23.10;35.70;101542.25;12251256;19;19918;-89
2023/05/05 12:21:25;;;;;;;;;;;24.20;32.30;;;23.13;35.55;101536.63;12247570;19;19923;-89
2023/05/05 12:25:35;;;;;;;;;;;24.20;31.80;;;23.12;35.06;101540.28;12244638;19;19919;-89
2023/05/05 12:29:38;;;;;;;;;;;24.20;31.90;;;23.15;35.59;101538.16;12244676;19;19930;-89
2023/05/05 12:33:40;;;;;;;;;;;24.20;33.20;;;23.11;35.40;101526.09;12246459;19;19923;-90
2023/05/05 12:37:42;;;;;;;;;;;24.30;33.10;;;23.16;35.14;101515.84;12243949;19;19926;-89
2023/05/05 12:41:44;;;;;;;;;;;24.30;33.30;;;23.31;35.15;101515.38;12245738;19;19919;-89
2023/05/05 12:45:45;;;;;;;;;;;24.30;33.30;;;23.40;35.04;101539.28;12247109;19;19926;-89
2023/05/05 12:49:50;;;;;;;;;;;24.40;32.00;;;23.31;34.74;101521.53;12241755;19;19923;-89
2023/05/05 12:54:10;;;;;;;;;;;24.40;31.60;;;23.45;34.57;101551.34;12246897;19;20344;-90
2023/05/05 12:58:12;;;;;;;;;;;24.50;32.10;;;23.22;34.86;101506.41;12247520;19;19919;-90
2023/05/05 13:02:13;;;;;;;;;;;24.50;31.10;;;23.14;34.57;101485.84;12246386;19;20259;-89
2023/05/05 13:06:19;;;;;;;;;;;24.50;32.90;;;23.39;34.59;101500.31;12250584;19;19915;-90
2023/05/05 13:10:21;;;;;;;;;;;24.50;32.50;;;23.46;34.65;101507.69;12259658;19;19936;-89
2023/05/05 13:14:23;;;;;;;;;;;24.60;31.80;;;23.27;34.71;101472.16;12260399;19;19927;-91
2023/05/05 13:18:24;;;;;;;;;;;24.60;30.50;;;23.29;34.26;101477.34;12254797;19;19923;-89
2023/05/05 13:22:25;;;;;;;;;;;24.60;30.50;;;23.21;34.68;101469.28;12253680;19;19930;-89
2023/05/05 13:26:27;;;;;;;;;;;24.50;31.50;;;23.14;34.67;101437.91;12257823;19;19923;-89
2023/05/05 13:30:29;;;;;;;;;;;24.50;31.70;;;23.59;34.50;101494.84;12258107;19;19918;-90
2023/05/05 13:34:33;;;;;;;;;;;24.60;30.20;;;23.33;34.09;101436.06;12256415;19;19915;-87
2023/05/05 13:38:35;;;;;;;;;;;24.60;30.60;;;23.50;34.04;101455.75;12247629;19;20242;-87
2023/05/05 13:42:37;;;;;;;;;;;24.60;31.60;;;23.66;34.14;101463.91;12254389;19;20354;-87
2023/05/05 13:46:40;;;;;;;;;;;24.60;32.20;;;23.79;34.20;101477.75;12253693;19;19943;-87
2023/05/05 13:50:41;;;;;;;;;;;24.70;30.50;;;23.78;34.18;101478.72;12258853;19;19918;-89
2023/05/05 13:54:43;;;;;;;;;;;24.80;31.90;;;23.81;34.05;101470.41;12261388;19;20336;-89
2023/05/05 13:58:45;;;;;;;;;;;24.80;32.80;;;23.79;33.77;101443.06;12255951;19;19919;-88
2023/05/05 14:02:47;;;;;;;;;;;24.80;32.80;;;23.80;33.79;101436.72;12253889;19;20249;-88
2023/05/05 14:06:48;;;;;;;;;;;24.90;32.70;;;23.85;34.15;101439.78;12257541;19;19930;-88
2023/05/05 14:10:50;;;;;;;;;;;24.90;31.20;;;23.78;34.15;101417.38;12258561;19;19914;-87
2023/05/05 14:14:52;;;;;;;;;;;24.90;32.10;;;24.00;33.89;101439.22;12256304;19;19919;-88
2023/05/05 14:18:53;;;;;;;;;;;25.00;32.40;;;24.03;34.09;101436.22;12255577;19;19934;-89
2023/05/05 14:22:55;;;;;;;;;;;25.00;32.00;;;24.02;34.10;101432.72;12253873;19;20237;-88
2023/05/05 14:26:56;;;;;;;;;;;25.00;32.20;;;23.89;34.09;101400.28;12255751;19;19923;-89
2023/05/05 14:30:57;;;;;;;;;;;25.10;32.70;;;24.07;34.15;101426.94;12258363;19;19932;-88
2023/05/05 14:34:59;;;;;;;;;;;25.10;32.20;;;24.08;33.63;101421.44;12258059;19;19915;-88
2023/05/05 14:39:01;;;;;;;;;;;25.10;32.10;;;24.10;33.87;101421.28;12255028;19;19923;-88
2023/05/05 14:43:02;;;;;;;;;;;25.10;31.60;;;24.01;33.97;101403.56;12255243;19;20301;-89
2023/05/05 14:47:04;;;;;;;;;;;25.10;30.20;;;24.10;33.45;101423.13;12254393;19;19923;-88
2023/05/05 14:51:06;;;;;;;;;;;25.10;31.80;;;24.01;33.55;101419.56;12258250;19;19923;-88
2023/05/05 14:55:08;;;;;;;;;;;25.10;31.00;;;23.92;33.70;101415.97;12256566;19;20360;-88
2023/05/05 14:59:09;;;;;;;;;;;25.00;30.80;;;23.84;33.49;101413.25;12254425;19;20316;-89
2023/05/05 15:03:11;;;;;;;;;;;24.90;30.70;;;23.77;33.30;101413.03;12252042;19;20351;-88
2023/05/05 15:07:12;;;;;;;;;;;24.80;31.10;;;23.52;33.04;101376.44;12256117;19;19923;-88
2023/05/05 15:11:14;;;;;;;;;;;24.70;31.50;;;23.57;33.37;101399.00;12254519;19;19915;-89
2023/05/05 15:15:16;;;;;;;;;;;24.60;30.70;;;23.25;33.17;101358.69;12257541;19;19911;-88
2023/05/05 15:19:18;;;;;;;;;;;24.60;31.80;;;23.37;33.01;101381.47;12252165;19;20598;-88
2023/05/05 15:23:19;;;;;;;;;;;24.60;31.80;;;23.14;33.33;101352.63;12253637;19;20462;-88
2023/05/05 15:27:21;;;;;;;;;;;24.40;30.70;;;23.22;33.53;101372.34;12252100;19;20281;-88
2023/05/05 15:31:22;;;;;;;;;;;24.40;32.30;;;23.38;33.45;101388.47;12249933;19;19919;-88
2023/05/05 15:35:24;;;;;;;;;;;24.40;30.70;;;23.39;33.35;101392.84;12253370;19;19914;-89
2023/05/05 15:39:26;;;;;;;;;;;24.30;31.20;;;23.37;33.22;101389.47;12250315;19;19957;-88
2023/05/05 15:43:27;;;;;;;;;;;24.40;30.90;;;23.19;33.11;101360.16;12250514;19;19935;-89
2023/05/05 15:47:29;;;;;;;;;;;24.30;30.40;;;23.30;33.00;101391.91;12250799;19;19935;-88
2023/05/05 15:51:31;;;;;;;;;;;24.30;31.30;;;23.28;33.26;101396.56;12248353;19;20291;-88
2023/05/05 15:55:33;;;;;;;;;;;24.20;30.10;;;23.15;32.95;101378.28;12252350;19;19922;-88
2023/05/05 15:59:35;;;;;;;;;;;24.20;31.70;;;23.11;33.04;101392.88;12247153;19;19923;-88
2023/05/05 16:03:37;;;;;;;;;;;24.10;30.70;;;23.03;32.67;101378.63;12249936;19;19923;-88
2023/05/05 16:07:38;;;;;;;;;;;24.00;31.20;;;22.97;33.17;101385.41;12248377;19;19915;-89
2023/05/05 16:11:40;;;;;;;;;;;24.00;31.30;;;22.49;33.10;101328.75;12248412;19;19918;-88
2023/05/05 16:15:42;;;;;;;;;;;23.90;30.60;;;22.48;33.00;101324.38;12249075;19;19923;-88
2023/05/05 16:19:43;;;;;;;;;;;24.00;32.20;;;22.46;32.77;101334.34;12242900;19;19915;-88
2023/05/05 16:23:45;;;;;;;;;;;23.80;32.00;;;22.72;33.18;101384.25;12248649;19;19935;-88
2023/05/05 16:27:46;;;;;;;;;;;23.70;31.90;;;22.70;32.72;101387.03;12244829;19;19923;-88
2023/05/05 16:31:48;;;;;;;;;;;23.70;31.90;;;22.64;33.11;101381.50;12241606;19;19986;-88
2023/05/05 16:35:50;;;;;;;;;;;23.60;31.90;;;22.60;33.12;101390.75;12245722;19;19919;-88
2023/05/05 16:39:51;;;;;;;;;;;23.60;31.60;;;22.53;33.14;101396.66;12243069;19;19937;-89
2023/05/05 16:43:53;;;;;;;;;;;23.40;32.00;;;22.36;32.82;101373.47;12254654;19;19921;-88
2023/05/05 16:47:54;;;;;;;;;;;23.40;32.20;;;22.38;33.16;101382.13;12249580;19;19982;-88
2023/05/05 16:51:56;;;;;;;;;;;23.30;32.20;;;22.30;33.17;101390.00;12260317;19;20270;-88
2023/05/05 16:55:58;;;;;;;;;;;23.20;32.10;;;22.12;32.82;101365.13;12257799;19;19942;-88
2023/05/05 16:59:59;;;;;;;;;;;23.10;32.10;;;22.08;33.01;101373.38;12256777;19;19978;-87
2023/05/05 17:04:01;;;;;;;;;;;23.10;32.80;;;22.04;33.01;101379.97;12258436;19;19935;-88
2023/05/05 17:08:02;;;;;;;;;;;23.00;32.60;;;22.02;33.09;101375.78;12256989;19;19923;-88
2023/05/05 17:12:04;;;;;;;;;;;22.90;32.60;;;21.96;33.00;101379.03;12258402;19;19922;-88
2023/05/05 17:16:06;;;;;;;;;;;22.90;32.80;;;21.99;33.30;101402.66;12259735;19;19932;-88
2023/05/05 17:20:08;;;;;;;;;;;22.80;32.90;;;21.47;33.07;101323.25;12256251;19;19915;-88
2023/05/05 17:24:10;;;;;;;;;;;22.80;32.70;;;21.73;33.25;101368.69;12266459;19;19935;-88
2023/05/05 17:28:11;;;;;;;;;;;22.70;32.80;;;21.73;33.21;101379.31;12259750;19;20536;-88
2023/05/05 17:32:12;;;;;;;;;;;22.70;32.90;;;21.57;33.08;101366.59;12264142;19;19923;-89
2023/05/05 17:36:14;;;;;;;;;;;22.60;33.00;;;21.34;33.08;101334.13;12255873;19;20375;-87
2023/05/05 17:40:15;;;;;;;;;;;22.50;33.10;;;21.54;33.09;101382.81;12261276;19;19918;-87
2023/05/05 17:44:17;;;;;;;;;;;22.50;33.20;;;21.50;33.39;101377.94;12260041;19;19930;-87
2023/05/05 17:48:18;;;;;;;;;;;22.40;33.30;;;21.31;33.22;101366.28;12258838;19;19918;-87
2023/05/05 17:52:20;;;;;;;;;;;22.30;33.40;;;21.23;33.59;101362.66;12255278;19;19975;-87
2023/05/05 17:56:21;;;;;;;;;;;22.20;33.50;;;21.24;33.23;101372.28;12257193;19;19915;-87
2023/05/05 18:00:23;;;;;;;;;;;22.20;34.00;;;21.10;33.58;101377.03;12255835;19;19911;-86
2023/05/05 18:04:24;;;;;;;;;;;22.10;34.40;;;21.04;33.64;101382.91;12257709;19;19942;-86
2023/05/05 18:08:26;;;;;;;;;;;22.00;34.30;;;20.86;33.56;101372.09;12252830;19;19919;-87
2023/05/05 18:12:27;;;;;;;;;;;21.90;34.40;;;20.81;33.83;101384.91;12256068;19;19947;-86
2023/05/05 18:16:29;;;;;;;;;;;21.80;34.20;;;20.68;34.04;101389.63;12255376;19;19918;-87
2023/05/05 18:20:31;;;;;;;;;;;21.70;34.50;;;20.67;33.92;101404.72;12255453;19;19927;-86